Time;durP1;ratioP1;P1;durP2;ratioP2;P2;SDS_P1;SDS_P2;PMS_P1;PMS_P2;Temp;Humidity;BMP_temperature;BMP_pressure;BME280_temperature;BME280_humidity;BME280_pressure;Samples;Min_cycle;Max_cycle;Signal;HPM_P1;HPM_P2
2021/05/06 00:03:14;;;;;;;1.00;0.73;;;;;;;8.46;51.22;99026.28;5043780;28;20264;-82
2021/05/06 00:08:25;;;;;;;1.23;0.90;;;;;;;8.62;51.49;99033.72;5003478;28;20293;-82
2021/05/06 00:11:14;;;;;;;1.50;1.00;;;;;;;8.54;51.11;99036.69;5004197;28;20203;-83
2021/05/06 00:33:08;;;;;;;1.07;0.77;;;;;;;8.21;53.14;99061.78;5040201;23;20217;-82
2021/05/06 00:35:37;;;;;;;0.80;0.70;;;;;;;8.04;53.82;99059.88;5045933;28;20236;-82
2021/05/06 00:38:16;;;;;;;1.20;0.73;;;;;;;7.99;53.95;99063.19;5061370;28;20229;-81
2021/05/06 00:41:09;;;;;;;1.37;0.90;;;;;;;8.01;54.30;99068.31;5062022;28;20237;-81
2021/05/06 00:54:45;;;;;;;0.70;0.60;;;;;;;7.92;55.18;99092.59;5039351;28;20282;-81
2021/05/06 00:57:21;;;;;;;0.80;0.80;;;;;;;7.71;55.18;99084.09;5069337;28;20244;-81
2021/05/06 01:00:22;;;;;;;1.80;0.73;;;;;;;7.69;55.76;99096.84;5075023;28;20218;-81
2021/05/06 01:05:30;;;;;;;0.70;0.70;;;;;;;7.48;55.53;99090.78;5045478;28;20249;-81
2021/05/06 01:08:11;;;;;;;1.00;0.80;;;;;;;7.44;55.99;99089.56;5044764;28;20235;-84
2021/05/06 01:13:05;;;;;;;1.77;0.73;;;;;;;7.53;55.82;99096.28;5050648;28;20635;-82
2021/05/06 01:15:32;;;;;;;1.93;0.90;;;;;;;7.52;56.59;99084.00;5052685;28;20229;-81
2021/05/06 01:17:59;;;;;;;0.63;0.50;;;;;;;7.51;56.87;99087.69;5104555;23;20247;-81
2021/05/06 01:20:31;;;;;;;1.30;0.70;;;;;;;7.50;56.73;99091.41;5104273;28;20272;-81
2021/05/06 01:22:57;;;;;;;0.93;0.80;;;;;;;7.48;57.27;99092.63;5086561;28;20227;-81
2021/05/06 01:25:24;;;;;;;0.70;0.70;;;;;;;7.45;57.12;99093.06;5103686;28;20251;-82
2021/05/06 01:28:03;;;;;;;1.70;0.93;;;;;;;7.35;58.14;99090.84;5105007;28;20212;-82
2021/05/06 01:31:00;;;;;;;1.10;0.90;;;;;;;7.36;57.91;99089.81;5115294;28;20299;-81
2021/05/06 01:36:05;;;;;;;1.10;0.87;;;;;;;7.25;58.46;99094.97;5101760;28;20220;-82
2021/05/06 01:49:50;;;;;;;1.93;0.80;;;;;;;6.99;59.44;99094.06;5088306;28;20224;-82
2021/05/06 02:00:44;;;;;;;2.97;0.87;;;;;;;7.02;59.73;99101.63;5103012;28;20612;-82
2021/05/06 02:03:18;;;;;;;1.47;0.70;;;;;;;7.01;60.47;99099.16;5088456;28;20237;-83
2021/05/06 02:05:49;;;;;;;1.57;0.80;;;;;;;6.92;60.96;99103.91;5086201;28;20564;-82
2021/05/06 02:08:18;;;;;;;1.23;0.80;;;;;;;6.97;60.72;99103.28;5071350;28;20263;-81
2021/05/06 02:11:02;;;;;;;1.10;0.77;;;;;;;6.97;60.31;99097.94;5094161;28;20246;-82
2021/05/06 02:13:43;;;;;;;1.00;0.80;;;;;;;7.22;58.37;99087.44;5105973;28;20228;-81
2021/05/06 02:16:19;;;;;;;2.13;1.00;;;;;;;7.13;58.38;99068.19;5095159;28;20719;-81
2021/05/06 02:18:50;;;;;;;3.00;0.60;;;;;;;7.37;57.58;99074.66;5088486;28;20224;-81
2021/05/06 02:21:22;;;;;;;1.37;0.80;;;;;;;7.38;57.58;99070.94;5097226;28;20224;-82
2021/05/06 02:23:57;;;;;;;1.30;0.90;;;;;;;7.55;57.20;99077.44;5102478;28;20229;-81
2021/05/06 02:26:29;;;;;;;2.43;1.00;;;;;;;7.30;57.78;99072.00;5097469;28;20229;-82
2021/05/06 02:29:05;;;;;;;2.37;0.90;;;;;;;7.42;57.86;99077.47;5086517;28;20228;-81
2021/05/06 02:31:32;;;;;;;1.67;0.90;;;;;;;7.48;57.85;99080.13;5087597;28;20205;-81
2021/05/06 02:33:59;;;;;;;2.17;1.00;;;;;;;7.49;57.57;99083.59;5085397;28;20228;-81
2021/05/06 02:36:29;;;;;;;0.90;0.80;;;;;;;7.36;57.41;99079.16;5084690;28;20252;-81
2021/05/06 02:39:00;;;;;;;1.67;0.90;;;;;;;7.29;58.31;99080.22;5084247;28;20228;-81
2021/05/06 02:41:26;;;;;;;1.50;0.80;;;;;;;7.18;58.84;99086.22;5082422;28;20248;-81
2021/05/06 02:43:52;;;;;;;1.20;0.83;;;;;;;7.09;59.07;99074.97;5084261;28;20232;-82
2021/05/06 02:46:18;;;;;;;3.30;0.80;;;;;;;7.01;59.48;99062.69;5066708;28;20241;-81
2021/05/06 02:48:46;;;;;;;1.70;0.90;;;;;;;7.00;59.43;99076.22;5083013;28;20531;-81
2021/05/06 02:51:14;;;;;;;1.40;1.07;;;;;;;7.00;60.17;99093.00;5070695;28;20221;-81
2021/05/06 02:53:49;;;;;;;0.87;0.67;;;;;;;7.03;60.55;99108.59;5104452;28;20341;-82
2021/05/06 03:04:05;;;;;;;1.40;0.90;;;;;;;6.87;61.06;99129.50;5084177;22;20226;-82
2021/05/06 03:06:38;;;;;;;1.43;0.90;;;;;;;6.85;62.15;99131.59;5006816;28;20616;-81
2021/05/06 03:20:58;;;;;;;1.27;0.97;;;;;;;6.71;63.57;99114.81;5031743;28;20257;-81
2021/05/06 03:21:08;;;;;;;0.93;0.70;;;;;;;6.71;63.53;99101.50;5025972;28;20230;-82
2021/05/06 03:23:34;;;;;;;0.87;0.77;;;;;;;6.62;63.90;99108.84;5062565;28;20276;-82
2021/05/06 03:26:01;;;;;;;2.97;1.07;;;;;;;6.61;64.15;99114.41;5046310;28;20526;-82
2021/05/06 03:28:33;;;;;;;1.57;1.07;;;;;;;6.64;64.31;99133.44;5028507;28;20229;-82
2021/05/06 03:42:16;;;;;;;1.23;1.00;;;;;;;6.55;65.83;99155.16;5027036;28;20245;-81
2021/05/06 04:15:51;;;;;;;2.30;1.40;;;;;;;7.06;66.02;99157.94;5028524;28;20237;-81
2021/05/06 04:18:27;;;;;;;2.47;1.70;;;;;;;6.96;64.97;99142.41;5036402;28;20237;-82
2021/05/06 04:26:59;;;;;;;3.63;1.90;;;;;;;7.27;65.08;99167.56;5047692;28;20293;-81
2021/05/06 04:37:13;;;;;;;1.90;1.70;;;;;;;7.44;64.34;99158.88;5065823;28;20232;-82
2021/05/06 04:42:30;;;;;;;4.37;1.90;;;;;;;7.65;63.79;99154.28;5046616;28;20227;-82
2021/05/06 04:56:05;;;;;;;5.23;2.27;;;;;;;8.02;63.61;99190.81;5048537;28;20245;-82
2021/05/06 04:58:56;;;;;;;4.57;1.80;;;;;;;8.09;64.27;99188.09;5048958;28;20567;-81
2021/05/06 05:20:51;;;;;;;3.17;2.07;;;;;;;9.39;60.29;99211.31;5024206;28;20234;-80
2021/05/06 05:26:17;;;;;;;9.23;1.80;;;;;;;9.79;57.54;99192.97;5003676;28;20240;-82
2021/05/06 05:28:45;;;;;;;4.57;2.10;;;;;;;10.04;56.88;99204.34;5011465;28;20297;-83
2021/05/06 05:31:11;;;;;;;4.20;2.13;;;;;;;10.18;56.16;99205.84;5025825;28;20235;-82
2021/05/06 05:33:53;;;;;;;4.03;2.17;;;;;;;10.35;55.50;99198.81;5008280;28;20226;-79
2021/05/06 05:36:24;;;;;;;4.40;2.07;;;;;;;10.41;55.71;99197.06;5047607;28;20237;-79
2021/05/06 05:39:09;;;;;;;3.77;2.07;;;;;;;10.63;54.42;99190.16;5045698;28;20226;-80
2021/05/06 05:47:14;;;;;;;6.03;3.50;;;;;;;11.20;53.03;99201.94;5048016;28;20237;-79
2021/05/06 05:55:11;;;;;;;3.37;1.80;;;;;;;11.55;48.88;99175.09;5048653;28;20284;-81
2021/05/06 05:57:37;;;;;;;4.13;1.87;;;;;;;11.60;48.77;99174.38;5041303;28;20246;-79
2021/05/06 06:00:07;;;;;;;3.17;1.90;;;;;;;11.84;49.16;99194.78;5010486;28;20233;-78
2021/05/06 06:02:38;;;;;;;2.13;1.60;;;;;;;11.94;47.44;99175.38;5028975;28;20226;-79
2021/05/06 06:05:07;;;;;;;3.27;1.50;;;;;;;12.02;47.68;99194.59;5037051;28;20288;-79
2021/05/06 06:07:33;;;;;;;1.63;1.37;;;;;;;12.14;46.98;99186.47;5049870;28;20222;-80
2021/05/06 06:10:01;;;;;;;5.33;1.40;;;;;;;12.27;46.94;99184.31;5040271;28;20225;-79
2021/05/06 06:12:29;;;;;;;3.23;1.70;;;;;;;12.33;46.93;99163.72;5030939;28;20235;-81
2021/05/06 06:15:04;;;;;;;1.80;1.50;;;;;;;12.47;47.21;99174.97;5029071;28;20314;-78
2021/05/06 06:17:42;;;;;;;2.27;1.43;;;;;;;12.33;47.34;99171.78;5033015;28;20226;-82
2021/05/06 06:20:17;;;;;;;1.50;1.30;;;;;;;12.48;46.77;99182.81;5032981;28;20222;-80
2021/05/06 06:22:49;;;;;;;2.73;1.67;;;;;;;12.57;46.83;99177.84;5035186;28;20205;-82
2021/05/06 06:25:44;;;;;;;3.17;1.70;;;;;;;12.55;47.83;99177.28;5146037;23;20216;-78
2021/05/06 06:29:27;;;;;;;1.57;1.40;;;;;;;12.62;46.88;99162.63;5068962;22;20221;-78
2021/05/06 06:32:02;;;;;;;3.63;1.47;;;;;;;12.89;46.65;99184.28;5075539;23;20270;-80
2021/05/06 06:34:28;;;;;;;2.77;1.47;;;;;;;12.93;46.86;99189.97;5061385;28;20240;-80
2021/05/06 06:36:57;;;;;;;1.40;1.30;;;;;;;12.99;46.55;99186.31;5054539;28;20588;-81
2021/05/06 06:39:24;;;;;;;4.50;1.67;;;;;;;13.01;45.92;99176.16;5056015;28;20244;-81
2021/05/06 06:41:51;;;;;;;1.60;1.30;;;;;;;13.11;45.73;99179.03;5073795;28;20243;-81
2021/05/06 06:44:20;;;;;;;2.40;1.40;;;;;;;13.31;46.13;99183.84;5049466;28;20221;-81
2021/05/06 06:47:00;;;;;;;2.20;1.50;;;;;;;13.31;46.29;99178.47;5055464;28;20236;-80
2021/05/06 06:49:28;;;;;;;3.80;1.40;;;;;;;13.36;45.74;99181.25;5042290;28;20621;-80
2021/05/06 06:51:54;;;;;;;3.10;1.20;;;;;;;13.37;45.03;99197.13;5025099;28;20238;-81
2021/05/06 06:54:22;;;;;;;1.60;1.20;;;;;;;13.20;45.58;99180.22;5041988;28;20640;-80
2021/05/06 06:56:50;;;;;;;2.83;1.40;;;;;;;13.13;45.69;99163.44;5043247;28;20230;-81
2021/05/06 06:59:17;;;;;;;1.63;1.50;;;;;;;13.28;46.59;99173.59;5039618;28;20575;-79
2021/05/06 07:01:43;;;;;;;2.13;1.67;;;;;;;13.09;47.95;99170.34;5055305;28;20241;-81
2021/05/06 07:04:11;;;;;;;2.17;1.40;;;;;;;13.35;47.56;99169.66;5058533;28;20320;-81
2021/05/06 07:06:37;;;;;;;3.47;1.80;;;;;;;13.72;47.24;99177.16;5075553;28;20236;-80
2021/05/06 07:09:05;;;;;;;1.83;1.67;;;;;;;13.86;47.37;99179.19;5026086;28;20228;-81
2021/05/06 07:11:32;;;;;;;3.37;1.70;;;;;;;13.92;47.70;99183.56;5046467;28;20233;-80
2021/05/06 07:13:58;;;;;;;2.20;1.90;;;;;;;14.22;47.88;99171.50;5021869;28;20291;-80
2021/05/06 07:16:24;;;;;;;2.47;2.20;;;;;;;14.48;47.56;99176.09;5031025;28;20286;-80
2021/05/06 07:18:51;;;;;;;2.90;2.20;;;;;;;14.68;47.37;99184.38;5040764;28;20233;-80
2021/05/06 07:21:18;;;;;;;1.80;1.60;;;;;;;14.78;47.20;99173.69;5032426;28;20229;-80
2021/05/06 07:23:44;;;;;;;2.27;2.07;;;;;;;14.90;47.39;99173.47;5019689;28;20226;-80
2021/05/06 07:26:12;;;;;;;1.83;1.73;;;;;;;15.02;46.74;99173.31;5034468;28;20227;-81
2021/05/06 07:28:41;;;;;;;2.50;2.00;;;;;;;15.24;47.16;99179.38;5018143;28;20664;-81
2021/05/06 07:31:12;;;;;;;3.40;2.00;;;;;;;15.18;47.04;99183.94;5046481;28;20252;-81
2021/05/06 07:33:43;;;;;;;1.83;1.67;;;;;;;15.23;47.13;99181.28;5019087;28;20313;-82
2021/05/06 07:36:15;;;;;;;3.30;2.00;;;;;;;15.31;46.92;99172.69;5038918;28;20253;-80
2021/05/06 07:38:45;;;;;;;4.50;2.17;;;;;;;15.58;46.81;99177.19;5052867;28;20221;-82
2021/05/06 07:41:16;;;;;;;3.63;1.70;;;;;;;15.69;45.82;99163.44;5022337;28;20218;-81
2021/05/06 07:43:45;;;;;;;2.13;1.70;;;;;;;15.86;46.17;99171.38;5050602;28;20662;-81
2021/05/06 07:46:16;;;;;;;2.57;2.27;;;;;;;16.03;45.83;99171.94;5037922;28;20219;-81
2021/05/06 07:48:49;;;;;;;2.93;1.57;;;;;;;16.51;44.97;99172.59;5053641;28;20296;-81
2021/05/06 07:51:18;;;;;;;2.60;2.10;;;;;;;16.67;43.74;99168.84;5054486;28;20626;-81
2021/05/06 07:53:52;;;;;;;3.47;2.33;;;;;;;16.80;43.10;99175.63;5021585;28;20231;-82
2021/05/06 07:56:23;;;;;;;4.60;3.70;;;;;;;16.94;42.74;99168.53;5032872;28;20653;-81
2021/05/06 07:58:50;;;;;;;5.37;2.67;;;;;;;17.07;42.99;99174.25;5033534;28;20229;-79
2021/05/06 08:01:17;;;;;;;3.10;2.53;;;;;;;17.27;42.54;99172.56;5003836;28;20326;-79
2021/05/06 08:03:44;;;;;;;2.60;1.90;;;;;;;17.22;41.73;99167.19;5037062;28;20229;-80
2021/05/06 08:06:13;;;;;;;2.63;2.30;;;;;;;17.27;41.88;99148.19;5051156;28;20227;-78
2021/05/06 08:08:40;;;;;;;2.50;2.10;;;;;;;17.34;42.08;99165.78;5017006;28;20694;-80
2021/05/06 08:11:08;;;;;;;2.43;1.90;;;;;;;17.36;42.03;99160.06;4997718;28;20277;-77
2021/05/06 08:13:35;;;;;;;4.43;2.40;;;;;;;17.18;42.74;99161.47;5034374;28;20228;-78
2021/05/06 08:16:01;;;;;;;2.40;1.57;;;;;;;17.36;41.59;99165.50;5035486;28;20318;-78
2021/05/06 08:18:27;;;;;;;2.13;1.93;;;;;;;17.31;41.51;99162.81;5017334;28;20232;-81
2021/05/06 08:20:54;;;;;;;3.13;1.87;;;;;;;17.47;42.00;99167.09;5017084;28;20229;-80
2021/05/06 08:23:21;;;;;;;2.83;1.87;;;;;;;17.85;41.32;99160.22;5033206;28;20260;-78
2021/05/06 08:25:47;;;;;;;1.73;1.60;;;;;;;17.83;41.03;99152.34;5020052;28;20311;-81
2021/05/06 08:28:14;;;;;;;2.40;1.70;;;;;;;18.13;40.06;99156.00;5004259;28;20225;-78
2021/05/06 08:30:42;;;;;;;1.80;1.50;;;;;;;18.30;39.49;99138.25;5033340;28;20540;-80
2021/05/06 08:33:11;;;;;;;1.70;1.43;;;;;;;18.52;39.05;99146.00;5046308;28;20233;-81
2021/05/06 08:35:37;;;;;;;1.57;1.30;;;;;;;18.90;37.90;99156.00;5069383;28;20229;-81
2021/05/06 08:38:04;;;;;;;2.07;1.23;;;;;;;18.85;37.96;99145.19;5019813;28;20228;-81
2021/05/06 08:40:31;;;;;;;1.70;1.40;;;;;;;18.86;37.49;99148.72;5036555;28;20225;-80
2021/05/06 08:43:10;;;;;;;1.40;1.30;;;;;;;19.01;37.60;99151.28;5022320;28;20283;-83
2021/05/06 08:45:42;;;;;;;1.87;1.40;;;;;;;19.28;36.37;99159.69;5034161;28;20537;-81
2021/05/06 08:48:12;;;;;;;1.77;1.10;;;;;;;19.16;35.79;99148.44;5044755;28;20621;-80
2021/05/06 08:50:39;;;;;;;5.20;1.27;;;;;;;19.03;35.41;99157.25;5036566;28;20221;-82
2021/05/06 08:53:07;;;;;;;2.20;1.27;;;;;;;19.56;35.22;99149.09;5036727;28;20666;-82
2021/05/06 08:55:34;;;;;;;1.50;1.30;;;;;;;19.84;34.39;99156.38;5019804;28;20527;-80
2021/05/06 08:58:00;;;;;;;3.00;1.33;;;;;;;19.91;34.44;99135.09;5043231;28;20257;-82
2021/05/06 09:00:27;;;;;;;1.50;1.20;;;;;;;20.05;34.15;99130.53;5032878;28;20226;-80
2021/05/06 09:02:54;;;;;;;1.43;1.20;;;;;;;19.69;33.62;99123.97;5040611;28;20225;-82
2021/05/06 09:05:22;;;;;;;2.00;1.20;;;;;;;19.50;34.23;99131.25;5036184;28;20233;-81
2021/05/06 09:07:49;;;;;;;5.67;2.63;;;;;;;19.88;33.45;99143.00;5023395;28;20222;-80
2021/05/06 09:10:33;;;;;;;2.23;1.30;;;;;;;19.96;32.61;99134.22;5036978;28;20230;-81
2021/05/06 09:13:00;;;;;;;1.17;1.00;;;;;;;20.00;32.71;99129.78;5060791;28;20233;-82
2021/05/06 09:15:27;;;;;;;1.73;1.20;;;;;;;20.12;32.34;99130.97;5023301;28;20241;-82
2021/05/06 09:17:53;;;;;;;3.67;1.37;;;;;;;20.14;32.18;99134.22;5023644;28;20521;-82
2021/05/06 09:20:29;;;;;;;1.77;1.37;;;;;;;20.57;30.95;99121.34;5023221;28;20234;-82
2021/05/06 09:22:57;;;;;;;2.07;1.43;;;;;;;20.69;31.19;99117.34;5040172;28;20532;-86
2021/05/06 09:25:35;;;;;;;1.70;1.20;;;;;;;20.57;31.68;99134.16;5040151;28;20230;-85
2021/05/06 09:28:02;;;;;;;2.40;1.40;;;;;;;20.41;31.39;99151.81;5039480;28;20227;-86
2021/05/06 09:31:03;;;;;;;1.37;1.20;;;;;;;20.40;30.05;99131.94;5057448;28;20633;-80
2021/05/06 09:33:41;;;;;;;2.03;1.43;;;;;;;20.52;30.56;99132.31;5046431;28;20224;-80
2021/05/06 09:36:09;;;;;;;1.40;1.00;;;;;;;20.70;29.71;99113.50;5075556;28;20232;-83
2021/05/06 09:38:47;;;;;;;3.63;1.40;;;;;;;20.91;29.45;99106.59;5066814;28;20233;-84
2021/05/06 09:41:19;;;;;;;1.73;1.10;;;;;;;21.03;28.87;99117.84;5056075;28;20252;-80
2021/05/06 09:43:46;;;;;;;1.10;1.00;;;;;;;20.41;29.76;99122.69;5059875;28;20728;-86
2021/05/06 09:46:43;;;;;;;1.00;0.90;;;;;;;20.46;29.39;99114.44;5041810;28;20225;-80
2021/05/06 09:49:12;;;;;;;1.57;1.30;;;;;;;20.60;28.96;99103.59;5044370;28;20238;-84
2021/05/06 09:51:58;;;;;;;3.07;1.10;;;;;;;20.07;29.71;99105.75;5059298;28;20247;-85
2021/05/06 09:54:27;;;;;;;1.23;1.00;;;;;;;19.86;29.80;99113.41;5075471;28;20240;-83
2021/05/06 09:57:05;;;;;;;1.60;1.00;;;;;;;19.80;29.71;99100.97;5059469;28;20647;-81
2021/05/06 09:59:38;;;;;;;1.30;1.00;;;;;;;20.01;30.48;99096.88;5058879;28;20636;-85
2021/05/06 10:02:08;;;;;;;1.77;1.00;;;;;;;20.29;30.04;99099.72;5059102;28;20693;-80
2021/05/06 10:04:34;;;;;;;1.77;1.17;;;;;;;19.88;31.34;99100.31;5076615;28;20632;-82
2021/05/06 10:07:10;;;;;;;1.17;0.93;;;;;;;20.01;30.63;99099.59;5075861;28;20224;-83
2021/05/06 10:09:58;;;;;;;1.77;0.80;;;;;;;20.13;30.25;99091.81;5059064;28;20220;-79
2021/05/06 10:12:27;;;;;;;2.73;1.10;;;;;;;19.90;30.38;99079.09;5058525;28;20624;-81
2021/05/06 10:14:55;;;;;;;2.63;0.93;;;;;;;20.38;29.87;99095.25;5059044;28;20225;-84
2021/05/06 10:17:22;;;;;;;2.77;2.13;;;;;;;20.56;28.75;99076.19;5057723;28;20224;-80
2021/05/06 10:19:51;;;;;;;1.43;1.30;;;;;;;20.97;28.69;99080.91;5078043;28;20232;-86
2021/05/06 10:22:21;;;;;;;2.10;1.00;;;;;;;21.28;28.30;99076.50;5057888;28;20226;-84
2021/05/06 10:24:49;;;;;;;1.43;0.90;;;;;;;21.43;27.88;99046.22;5067554;28;20228;-82
2021/05/06 10:27:25;;;;;;;1.77;1.10;;;;;;;21.09;27.95;99060.22;5075030;28;20260;-85
2021/05/06 10:29:57;;;;;;;1.53;1.10;;;;;;;21.39;28.27;99047.13;5050978;28;20224;-86
2021/05/06 10:32:25;;;;;;;1.30;1.20;;;;;;;21.20;27.26;99054.63;5058450;28;20227;-82
2021/05/06 10:34:56;;;;;;;1.27;1.17;;;;;;;21.32;27.71;99057.66;5050557;28;20646;-85
2021/05/06 10:37:28;;;;;;;1.33;1.10;;;;;;;21.50;27.88;99048.56;5074663;28;20232;-79
2021/05/06 10:39:55;;;;;;;1.00;0.90;;;;;;;21.29;28.19;99055.53;5066141;28;20233;-84
2021/05/06 10:42:27;;;;;;;1.00;0.90;;;;;;;21.34;28.28;99058.94;5055806;28;20241;-82
2021/05/06 10:45:14;;;;;;;1.10;0.90;;;;;;;21.65;27.13;99045.47;5069236;28;20230;-83
2021/05/06 10:47:47;;;;;;;1.27;0.97;;;;;;;21.62;27.72;99046.09;5079878;28;20243;-80
2021/05/06 10:50:18;;;;;;;1.93;1.10;;;;;;;20.96;29.62;99044.69;5060512;28;20214;-81
2021/05/06 10:52:49;;;;;;;1.00;0.90;;;;;;;21.38;29.07;99045.53;5065622;28;20226;-85
2021/05/06 10:55:55;;;;;;;1.17;0.80;;;;;;;20.90;29.45;99045.88;5059738;28;20232;-78
2021/05/06 10:58:21;;;;;;;1.10;0.90;;;;;;;20.84;29.61;99043.56;5064118;28;20228;-81
2021/05/06 11:01:09;;;;;;;2.10;0.97;;;;;;;21.06;28.87;99041.78;5063716;28;20221;-80
2021/05/06 11:03:36;;;;;;;1.53;1.10;;;;;;;20.82;29.50;99048.50;5061115;28;20217;-79
2021/05/06 11:06:03;;;;;;;1.63;0.90;;;;;;;20.75;30.32;99031.75;5080699;28;20703;-81
2021/05/06 11:08:31;;;;;;;1.90;0.80;;;;;;;20.67;29.60;99025.88;5062173;28;20226;-83
2021/05/06 11:11:01;;;;;;;0.93;0.80;;;;;;;20.72;29.63;99027.72;5072141;28;20643;-84
2021/05/06 11:14:02;;;;;;;2.50;0.80;;;;;;;20.31;30.32;99015.94;5057808;28;20230;-80
2021/05/06 11:16:28;;;;;;;1.50;0.90;;;;;;;19.84;31.50;99006.84;5054158;28;20228;-78
2021/05/06 11:18:57;;;;;;;2.73;0.90;;;;;;;19.59;30.94;98994.47;5032451;28;20312;-86
2021/05/06 11:21:30;;;;;;;1.50;1.00;;;;;;;19.19;32.73;99009.34;5074071;28;20235;-81
2021/05/06 11:24:25;;;;;;;1.20;0.90;;;;;;;19.14;32.49;99009.41;5074052;28;20233;-84
2021/05/06 11:27:13;;;;;;;1.07;0.73;;;;;;;19.30;32.32;99018.19;5054867;28;20685;-82
2021/05/06 11:29:41;;;;;;;1.63;0.90;;;;;;;19.32;31.75;99000.50;5055999;28;20571;-82
2021/05/06 11:32:23;;;;;;;1.67;0.80;;;;;;;19.22;31.51;99006.06;5056724;28;20543;-80
2021/05/06 11:34:52;;;;;;;1.97;0.90;;;;;;;19.00;32.07;98977.81;5070482;28;20220;-86
2021/05/06 11:37:27;;;;;;;1.30;0.63;;;;;;;19.28;31.75;98980.44;5053965;28;20237;-86
2021/05/06 11:40:06;;;;;;;1.03;0.80;;;;;;;19.31;32.28;98982.59;5065776;28;20231;-80
2021/05/06 11:42:40;;;;;;;0.83;0.70;;;;;;;19.38;33.14;98976.78;5073772;28;20544;-82
2021/05/06 11:45:08;;;;;;;1.63;0.70;;;;;;;19.31;32.14;98989.94;5057303;28;20574;-81
2021/05/06 11:47:35;;;;;;;1.57;1.00;;;;;;;19.51;32.35;98976.09;5057022;28;20232;-83
2021/05/06 11:50:25;;;;;;;1.70;1.00;;;;;;;19.46;31.90;98972.63;5037198;28;20256;-82
2021/05/06 11:52:53;;;;;;;1.10;0.87;;;;;;;19.84;31.49;98970.72;5042568;28;20232;-86
2021/05/06 11:55:49;;;;;;;1.43;0.90;;;;;;;20.43;30.52;98987.16;5073783;28;20221;-85
2021/05/06 11:58:24;;;;;;;0.97;0.87;;;;;;;20.87;29.78;98962.09;5044261;28;20232;-81
2021/05/06 12:00:54;;;;;;;2.20;1.00;;;;;;;21.45;29.37;98978.63;5065370;28;20229;-82
2021/05/06 12:03:21;;;;;;;2.47;1.00;;;;;;;21.50;28.83;98983.16;5053505;28;20234;-81
2021/05/06 12:05:55;;;;;;;1.13;0.90;;;;;;;22.25;28.45;98980.56;5043946;28;20311;-81
2021/05/06 12:08:24;;;;;;;1.47;0.93;;;;;;;22.76;28.34;98976.50;5056646;28;20540;-83
2021/05/06 12:10:52;;;;;;;2.90;1.10;;;;;;;22.82;27.88;98977.97;5066902;28;20644;-80
2021/05/06 12:13:33;;;;;;;1.00;0.90;;;;;;;23.50;27.07;98982.84;5036956;28;20642;-81
2021/05/06 12:16:21;;;;;;;2.10;1.33;;;;;;;22.77;26.92;98978.91;5060680;28;20229;-85
2021/05/06 12:18:57;;;;;;;1.97;1.00;;;;;;;22.52;27.01;99000.63;5073033;28;20227;-83
2021/05/06 12:21:32;;;;;;;1.57;0.93;;;;;;;21.94;27.53;98966.03;5073546;28;20229;-85
2021/05/06 12:23:59;;;;;;;1.27;0.90;;;;;;;22.03;27.50;98964.19;5056293;28;20222;-83
2021/05/06 12:26:29;;;;;;;1.63;1.00;;;;;;;22.04;28.30;98968.53;5089599;28;20231;-81
2021/05/06 12:28:56;;;;;;;2.73;1.03;;;;;;;21.70;29.01;98960.84;5073472;28;20556;-82
2021/05/06 12:31:24;;;;;;;1.80;0.90;;;;;;;21.35;29.86;98957.03;5056848;28;20534;-83
2021/05/06 12:33:51;;;;;;;1.73;0.93;;;;;;;21.28;29.63;98953.09;5073310;28;20234;-80
2021/05/06 12:36:18;;;;;;;1.87;1.00;;;;;;;20.58;30.15;98953.41;5065818;28;20321;-82
2021/05/06 12:38:45;;;;;;;1.07;0.97;;;;;;;20.37;30.77;98939.38;5069939;28;20226;-84
2021/05/06 12:41:12;;;;;;;1.00;1.00;;;;;;;20.15;30.82;98952.81;5059478;28;20539;-83
2021/05/06 12:43:50;;;;;;;1.60;1.00;;;;;;;19.34;31.28;98927.69;5060331;28;20225;-80
2021/05/06 12:46:24;;;;;;;4.23;1.37;;;;;;;19.06;32.35;98925.09;5054656;28;20225;-86
2021/05/06 12:48:58;;;;;;;0.80;0.80;;;;;;;19.06;33.02;98925.09;5073686;28;20225;-80
2021/05/06 12:51:28;;;;;;;1.63;0.90;;;;;;;19.18;32.80;98925.47;5063069;28;20263;-82
2021/05/06 12:53:58;;;;;;;1.80;1.00;;;;;;;19.55;32.59;98913.84;5076821;28;20654;-83
2021/05/06 12:56:31;;;;;;;2.00;1.17;;;;;;;19.76;31.67;98912.41;5077648;28;20315;-85
2021/05/06 12:58:57;;;;;;;1.40;1.00;;;;;;;19.77;31.77;98916.75;5077628;28;20231;-84
2021/05/06 13:01:32;;;;;;;2.67;1.10;;;;;;;19.65;31.64;98909.03;5055583;28;20267;-80
2021/05/06 13:04:02;;;;;;;1.60;0.97;;;;;;;19.70;31.68;98905.44;5023703;28;20642;-80
2021/05/06 13:06:33;;;;;;;1.40;1.10;;;;;;;19.96;31.78;98900.41;5060848;28;20225;-80
2021/05/06 13:09:00;;;;;;;3.00;1.00;;;;;;;20.18;30.77;98889.66;5077816;28;20232;-79
2021/05/06 13:11:27;;;;;;;0.90;0.90;;;;;;;20.41;30.31;98902.31;5056619;28;20245;-80
2021/05/06 13:13:56;;;;;;;1.70;1.20;;;;;;;20.71;29.49;98890.03;5040024;28;20596;-80
2021/05/06 13:16:49;;;;;;;1.30;0.80;;;;;;;21.06;29.31;98893.91;5025299;28;20229;-79
2021/05/06 13:19:19;;;;;;;1.60;0.93;;;;;;;21.10;28.82;98884.00;5061121;28;20735;-85
2021/05/06 13:21:51;;;;;;;1.37;0.97;;;;;;;21.04;28.59;98887.97;5060076;28;20562;-85
2021/05/06 13:24:20;;;;;;;1.93;1.00;;;;;;;21.29;29.18;98892.88;5072026;28;20232;-83
2021/05/06 13:26:47;;;;;;;1.70;0.90;;;;;;;21.48;28.24;98885.34;5092789;28;20267;-81
2021/05/06 13:29:18;;;;;;;2.33;1.00;;;;;;;21.93;27.21;98902.50;5076305;28;20234;-85
2021/05/06 13:31:47;;;;;;;2.27;0.93;;;;;;;21.93;27.42;98891.59;5089394;28;20668;-82
2021/05/06 13:34:24;;;;;;;2.20;1.03;;;;;;;22.17;27.04;98885.81;5039246;28;20280;-83
2021/05/06 13:37:03;;;;;;;0.90;0.90;;;;;;;22.51;26.94;98887.88;5060445;28;20247;-80
2021/05/06 13:39:30;;;;;;;2.33;1.10;;;;;;;22.86;26.08;98888.03;5075767;28;20225;-83
2021/05/06 13:41:56;;;;;;;0.83;0.83;;;;;;;23.67;25.51;98853.53;5055810;28;20226;-81
2021/05/06 13:44:24;;;;;;;2.63;1.00;;;;;;;24.73;24.08;98863.47;5040331;28;20233;-83
2021/05/06 13:46:56;;;;;;;1.27;1.03;;;;;;;25.45;22.47;98865.09;5073950;28;20312;-81
2021/05/06 13:49:30;;;;;;;1.57;0.90;;;;;;;26.37;22.06;98856.59;5039145;28;20231;-84
2021/05/06 13:51:58;;;;;;;2.80;0.97;;;;;;;26.36;21.49;98861.31;5024711;28;20681;-80
2021/05/06 13:54:27;;;;;;;2.60;0.90;;;;;;;26.51;20.73;98857.06;5074534;28;20311;-82
2021/05/06 13:56:54;;;;;;;1.57;0.93;;;;;;;27.01;20.27;98851.25;5074956;28;20228;-84
2021/05/06 13:59:21;;;;;;;2.00;0.83;;;;;;;27.61;19.23;98828.25;5039148;28;20308;-81
2021/05/06 14:01:55;;;;;;;1.73;1.00;;;;;;;27.86;19.31;98837.97;5039128;28;20555;-80
2021/05/06 14:04:22;;;;;;;1.50;0.90;;;;;;;27.80;19.09;98828.41;5039670;28;20323;-84
2021/05/06 14:06:48;;;;;;;1.13;0.90;;;;;;;27.19;19.56;98813.28;5072194;28;20233;-82
2021/05/06 14:09:18;;;;;;;1.17;1.03;;;;;;;25.43;21.74;98809.78;5058122;28;20224;-82
2021/05/06 14:11:48;;;;;;;1.83;0.90;;;;;;;23.41;24.77;98814.47;5059255;28;20230;-85
2021/05/06 14:14:16;;;;;;;1.20;1.00;;;;;;;22.47;25.76;98821.41;5054378;28;20227;-81
2021/05/06 14:16:43;;;;;;;3.43;0.90;;;;;;;21.88;26.78;98796.25;5039340;28;20627;-83
2021/05/06 14:19:12;;;;;;;1.87;1.00;;;;;;;21.23;27.51;98784.34;5085897;28;20223;-85
2021/05/06 14:21:40;;;;;;;1.87;0.87;;;;;;;20.79;29.03;98772.25;5075123;28;20232;-82
2021/05/06 14:24:07;;;;;;;1.57;0.80;;;;;;;20.53;29.65;98766.56;5094886;28;20285;-85
2021/05/06 14:26:33;;;;;;;1.27;0.67;;;;;;;20.14;30.02;98761.66;5077329;28;20555;-84
2021/05/06 14:29:00;;;;;;;1.13;0.77;;;;;;;19.92;31.12;98769.72;5074984;28;20235;-80
2021/05/06 14:31:26;;;;;;;1.00;0.70;;;;;;;20.14;30.55;98772.53;5058590;28;20232;-83
2021/05/06 14:33:52;;;;;;;1.50;0.80;;;;;;;19.56;30.45;98758.66;5062373;28;20659;-81
2021/05/06 14:36:19;;;;;;;2.63;0.90;;;;;;;19.36;30.59;98762.50;5054751;28;20236;-80
2021/05/06 14:38:45;;;;;;;1.27;0.70;;;;;;;19.46;30.75;98750.69;5056112;28;20254;-83
2021/05/06 14:41:11;;;;;;;1.53;0.70;;;;;;;19.20;30.68;98734.00;5075150;28;20236;-85
2021/05/06 14:43:38;;;;;;;1.20;0.70;;;;;;;19.26;30.87;98732.03;5041835;28;20221;-80
2021/05/06 14:46:05;;;;;;;4.07;1.80;;;;;;;19.01;31.07;98730.53;5041129;28;20224;-85
2021/05/06 14:48:31;;;;;;;1.90;1.10;;;;;;;18.71;30.88;98731.00;5045604;28;20224;-80
2021/05/06 14:50:58;;;;;;;1.50;0.70;;;;;;;18.63;31.26;98724.31;5058204;28;20229;-80
2021/05/06 14:53:26;;;;;;;2.10;0.73;;;;;;;18.48;31.69;98725.31;5088976;28;20258;-80
2021/05/06 14:55:53;;;;;;;1.93;0.90;;;;;;;18.40;31.81;98711.59;5057993;28;20240;-84
2021/05/06 14:58:19;;;;;;;3.90;0.80;;;;;;;18.20;32.24;98714.59;5052859;28;20609;-81